Time;durP1;ratioP1;P1;durP2;ratioP2;P2;SDS_P1;SDS_P2;PMS_P1;PMS_P2;Temp;Humidity;BMP_temperature;BMP_pressure;BME280_temperature;BME280_humidity;BME280_pressure;Samples;Min_cycle;Max_cycle;Signal;HPM_P1;HPM_P2
2021/10/04 00:02:07;;;;;;;8.27;2.92;;;12.00;97.30;;;;;;4774352;30;20074;-82
2021/10/04 00:04:33;;;;;;;8.00;3.08;;;12.00;97.30;;;;;;4777410;29;20051;-83
2021/10/04 00:06:59;;;;;;;7.70;2.60;;;12.00;97.30;;;;;;4789955;29;20046;-83
2021/10/04 00:09:25;;;;;;;7.10;2.67;;;12.00;97.30;;;;;;4783674;29;20039;-83
2021/10/04 00:11:51;;;;;;;8.70;2.67;;;12.00;97.30;;;;;;4775301;30;20079;-82
2021/10/04 00:14:20;;;;;;;7.80;2.55;;;12.00;97.30;;;;;;4797537;29;20058;-83
2021/10/04 00:16:46;;;;;;;7.22;2.70;;;11.90;97.30;;;;;;4806523;29;20078;-82
2021/10/04 00:19:12;;;;;;;6.15;2.33;;;12.00;97.30;;;;;;4790337;29;20459;-82
2021/10/04 00:21:37;;;;;;;9.38;2.50;;;12.00;97.30;;;;;;4786534;29;20046;-82
2021/10/04 00:24:03;;;;;;;8.88;2.63;;;11.90;97.30;;;;;;4787447;30;20131;-83
2021/10/04 00:26:31;;;;;;;7.50;2.40;;;11.90;97.60;;;;;;4774246;30;20074;-82
2021/10/04 00:28:57;;;;;;;6.65;2.30;;;11.90;97.20;;;;;;4773276;29;20059;-82
2021/10/04 00:31:23;;;;;;;5.78;2.33;;;11.90;97.30;;;;;;4785577;29;20058;-83
2021/10/04 00:33:48;;;;;;;9.20;2.22;;;11.90;97.20;;;;;;4784469;29;20055;-82
2021/10/04 00:36:14;;;;;;;5.88;2.50;;;11.90;97.20;;;;;;4774878;30;20085;-83
2021/10/04 00:38:39;;;;;;;4.70;2.10;;;11.90;97.10;;;;;;4774102;30;20110;-83
2021/10/04 00:41:05;;;;;;;6.75;1.98;;;11.90;97.20;;;;;;4787570;29;20058;-83
2021/10/04 00:43:31;;;;;;;7.25;2.28;;;11.90;97.20;;;;;;4806934;29;20412;-83
2021/10/04 00:45:56;;;;;;;7.53;2.50;;;11.90;97.20;;;;;;4779404;29;20070;-83
2021/10/04 00:48:22;;;;;;;7.07;1.95;;;11.90;97.20;;;;;;4790180;29;20059;-83
2021/10/04 00:50:49;;;;;;;9.25;2.67;;;11.90;97.20;;;;;;4788360;29;20071;-82
2021/10/04 00:53:15;;;;;;;7.80;2.28;;;11.90;97.20;;;;;;4789619;29;20058;-81
2021/10/04 00:55:40;;;;;;;7.53;2.00;;;11.90;97.20;;;;;;4773245;29;20051;-83
2021/10/04 00:58:06;;;;;;;7.75;2.10;;;11.90;97.20;;;;;;4791371;29;20051;-83
2021/10/04 01:00:32;;;;;;;7.68;2.50;;;11.90;97.20;;;;;;4790857;29;20146;-83
2021/10/04 01:02:58;;;;;;;5.65;2.30;;;11.90;97.30;;;;;;4775311;30;20051;-83
2021/10/04 01:05:25;;;;;;;5.55;2.00;;;11.90;97.30;;;;;;4787208;29;20047;-82
2021/10/04 01:07:51;;;;;;;5.85;2.10;;;11.90;97.30;;;;;;4787479;29;20133;-82
2021/10/04 01:10:17;;;;;;;10.18;2.38;;;11.90;97.20;;;;;;4796313;29;20054;-82
2021/10/04 01:12:48;;;;;;;6.55;1.92;;;11.90;97.20;;;;;;4772564;29;20138;-82
2021/10/04 01:15:15;;;;;;;5.55;2.08;;;11.90;97.20;;;;;;4782269;29;20080;-82
2021/10/04 01:17:42;;;;;;;7.63;2.15;;;11.90;97.30;;;;;;4776344;30;20093;-82
2021/10/04 01:20:28;;;;;;;10.85;2.15;;;11.90;97.30;;;;;;4778271;29;20047;-82
2021/10/04 01:22:55;;;;;;;6.45;2.15;;;11.80;97.20;;;;;;4787077;30;20492;-83
2021/10/04 01:25:22;;;;;;;7.97;2.30;;;11.90;97.30;;;;;;4780104;30;20047;-82
2021/10/04 01:27:48;;;;;;;6.95;2.03;;;11.90;97.30;;;;;;4785297;29;20057;-82
2021/10/04 01:30:17;;;;;;;5.68;1.95;;;11.80;97.30;;;;;;4789678;29;20058;-83
2021/10/04 01:32:43;;;;;;;9.05;2.17;;;11.80;97.30;;;;;;4786479;29;20435;-82
2021/10/04 01:35:10;;;;;;;7.78;2.10;;;11.80;97.30;;;;;;4790505;29;20385;-82
2021/10/04 01:37:36;;;;;;;7.43;2.38;;;11.80;97.30;;;;;;4788848;29;20050;-82
2021/10/04 01:40:02;;;;;;;7.38;2.22;;;11.80;97.30;;;;;;4806476;29;20133;-83
2021/10/04 01:42:28;;;;;;;8.63;2.10;;;11.80;97.30;;;;;;4780220;29;20109;-82
2021/10/04 01:44:54;;;;;;;10.10;2.00;;;11.80;97.30;;;;;;4788204;29;20069;-82
2021/10/04 01:47:19;;;;;;;5.57;2.08;;;11.80;97.30;;;;;;4783894;30;20054;-82
2021/10/04 01:49:45;;;;;;;8.82;2.00;;;11.80;97.30;;;;;;4772107;30;20138;-82
2021/10/04 01:52:12;;;;;;;5.80;2.05;;;11.80;97.40;;;;;;4771890;30;20051;-82
2021/10/04 01:54:39;;;;;;;6.22;2.35;;;11.80;97.30;;;;;;4772493;29;20493;-82
2021/10/04 01:57:04;;;;;;;6.75;1.90;;;11.80;97.40;;;;;;4774740;29;20077;-82
2021/10/04 01:59:30;;;;;;;5.93;2.00;;;11.80;97.40;;;;;;4784128;29;20040;-82
2021/10/04 02:01:56;;;;;;;8.73;2.10;;;11.80;97.30;;;;;;4773487;29;20163;-82
2021/10/04 02:04:21;;;;;;;6.97;1.75;;;11.80;97.30;;;;;;4790016;29;20188;-82
2021/10/04 02:06:49;;;;;;;9.20;2.30;;;11.80;97.30;;;;;;4789279;29;20098;-83
2021/10/04 02:09:19;;;;;;;8.73;2.30;;;11.80;97.30;;;;;;4773255;29;20062;-83
2021/10/04 02:11:46;;;;;;;7.57;1.95;;;11.80;97.30;;;;;;4789661;29;20085;-82
2021/10/04 02:14:11;;;;;;;8.18;1.88;;;11.80;97.30;;;;;;4772889;29;20093;-83
2021/10/04 02:16:37;;;;;;;6.97;2.05;;;11.80;97.30;;;;;;4788665;29;20119;-82
2021/10/04 02:19:03;;;;;;;6.30;1.80;;;11.80;97.30;;;;;;4786336;29;20047;-82
2021/10/04 02:21:29;;;;;;;5.80;1.90;;;11.80;97.30;;;;;;4774401;29;20085;-82
2021/10/04 02:23:54;;;;;;;6.03;1.70;;;11.70;97.30;;;;;;4772903;30;20111;-82
2021/10/04 02:26:20;;;;;;;5.97;2.03;;;11.80;97.40;;;;;;4781516;29;20058;-82
2021/10/04 02:28:46;;;;;;;8.75;2.00;;;11.80;97.30;;;;;;4778172;30;20047;-82
2021/10/04 02:31:11;;;;;;;10.95;2.22;;;11.70;97.30;;;;;;4781776;29;20053;-82
2021/10/04 02:33:37;;;;;;;8.82;2.13;;;11.80;97.40;;;;;;4788772;29;20070;-82
2021/10/04 02:36:03;;;;;;;6.40;1.88;;;11.80;97.40;;;;;;4778041;29;20047;-81
2021/10/04 02:38:28;;;;;;;5.75;1.90;;;11.80;97.40;;;;;;4782661;29;20408;-82
2021/10/04 02:40:54;;;;;;;4.65;1.73;;;11.80;97.40;;;;;;4780524;29;20047;-82
2021/10/04 02:43:20;;;;;;;4.38;1.60;;;11.80;97.40;;;;;;4785252;29;20035;-82
2021/10/04 02:45:50;;;;;;;4.38;1.60;;;11.80;97.30;;;;;;4775774;29;20069;-82
2021/10/04 02:48:16;;;;;;;6.15;1.88;;;11.70;97.20;;;;;;4783735;29;20067;-82
2021/10/04 02:50:41;;;;;;;5.78;1.70;;;11.80;97.20;;;;;;4775256;29;20066;-82
2021/10/04 02:53:07;;;;;;;6.88;1.67;;;11.80;97.30;;;;;;4780129;29;20047;-82
2021/10/04 02:55:33;;;;;;;5.85;1.80;;;11.80;97.20;;;;;;4788794;29;20055;-82
2021/10/04 02:57:59;;;;;;;5.85;1.85;;;11.80;97.30;;;;;;4784296;29;20143;-82
2021/10/04 03:00:25;;;;;;;4.85;1.60;;;11.80;97.20;;;;;;4775608;29;20503;-82
2021/10/04 03:02:50;;;;;;;6.65;1.63;;;11.70;97.20;;;;;;4792464;29;20039;-82
2021/10/04 03:05:16;;;;;;;5.10;1.42;;;11.70;97.20;;;;;;4792819;29;20585;-82
2021/10/04 03:07:41;;;;;;;7.18;1.70;;;11.70;97.20;;;;;;4791250;29;20055;-81
2021/10/04 03:10:07;;;;;;;4.53;1.60;;;11.70;97.30;;;;;;4791071;29;20051;-82
2021/10/04 03:12:33;;;;;;;5.13;1.33;;;11.70;97.20;;;;;;4789903;29;20420;-83
2021/10/04 03:14:59;;;;;;;9.13;1.90;;;11.70;97.20;;;;;;4804603;29;20051;-82
2021/10/04 03:17:26;;;;;;;4.38;1.55;;;11.70;97.10;;;;;;4790351;29;20158;-82
2021/10/04 03:19:51;;;;;;;6.43;1.75;;;11.70;97.10;;;;;;4777853;29;20066;-82
2021/10/04 03:22:17;;;;;;;5.50;1.70;;;11.70;97.10;;;;;;4775354;29;20047;-82
2021/10/04 03:24:42;;;;;;;5.90;1.40;;;11.70;97.10;;;;;;4774318;30;20039;-82
2021/10/04 03:27:08;;;;;;;5.68;1.50;;;11.60;97.10;;;;;;4774871;30;20062;-82
2021/10/04 03:29:34;;;;;;;5.57;1.60;;;11.60;97.20;;;;;;4775464;29;20067;-82
2021/10/04 03:31:59;;;;;;;6.72;1.77;;;11.60;97.20;;;;;;4774148;30;20051;-82
2021/10/04 03:34:25;;;;;;;4.53;1.40;;;11.60;97.20;;;;;;4780620;30;20043;-82
2021/10/04 03:36:51;;;;;;;7.72;1.58;;;11.60;97.20;;;;;;4774235;30;20059;-82
2021/10/04 03:39:17;;;;;;;4.93;1.30;;;11.60;97.20;;;;;;4797710;29;20046;-82
2021/10/04 03:41:43;;;;;;;5.47;1.50;;;11.60;97.20;;;;;;4774723;30;20501;-82
2021/10/04 03:44:09;;;;;;;6.53;1.40;;;11.60;97.20;;;;;;4774349;30;20085;-82
2021/10/04 03:46:34;;;;;;;7.50;1.50;;;11.60;97.10;;;;;;4786486;29;20137;-82
2021/10/04 03:49:00;;;;;;;3.97;1.40;;;11.60;97.20;;;;;;4779064;29;20051;-82
2021/10/04 03:51:28;;;;;;;4.15;1.20;;;11.60;97.20;;;;;;4774317;29;20054;-82
2021/10/04 03:53:53;;;;;;;6.68;1.55;;;11.60;97.20;;;;;;4785338;29;20065;-82
2021/10/04 03:56:19;;;;;;;6.03;1.50;;;11.60;97.20;;;;;;4792621;29;20137;-83
2021/10/04 03:58:45;;;;;;;5.93;1.58;;;11.60;97.20;;;;;;4789233;29;20059;-83
2021/10/04 04:01:11;;;;;;;5.43;1.50;;;11.60;97.20;;;;;;4778645;30;20055;-82
2021/10/04 04:03:37;;;;;;;5.28;1.65;;;11.60;97.20;;;;;;4778084;29;20404;-82
2021/10/04 04:06:03;;;;;;;5.57;1.33;;;11.50;97.20;;;;;;4789952;29;20044;-82
2021/10/04 04:08:30;;;;;;;7.75;1.70;;;11.60;97.30;;;;;;4789714;29;20054;-82
2021/10/04 04:10:55;;;;;;;7.50;1.58;;;11.60;97.30;;;;;;4792261;29;20051;-82
2021/10/04 04:13:21;;;;;;;6.82;1.27;;;11.60;97.30;;;;;;4805388;29;20107;-82
2021/10/04 04:15:47;;;;;;;5.80;1.30;;;11.50;97.30;;;;;;4777669;29;20131;-82
2021/10/04 04:18:13;;;;;;;5.95;1.63;;;11.60;97.40;;;;;;4786687;29;20484;-82
2021/10/04 04:20:38;;;;;;;4.80;1.73;;;11.60;97.40;;;;;;4779979;29;20055;-82
2021/10/04 04:23:05;;;;;;;6.10;1.40;;;11.50;97.30;;;;;;4779283;30;20444;-82
2021/10/04 04:25:30;;;;;;;7.18;1.52;;;11.60;97.40;;;;;;4774707;30;20130;-82
2021/10/04 04:27:58;;;;;;;5.45;1.50;;;11.50;97.30;;;;;;4774568;29;20130;-82
2021/10/04 04:30:25;;;;;;;8.40;1.48;;;11.50;97.30;;;;;;4783733;29;20086;-82
2021/10/04 04:32:50;;;;;;;7.45;1.40;;;11.50;97.30;;;;;;4779808;30;20512;-84
2021/10/04 04:35:16;;;;;;;5.47;1.30;;;11.50;97.20;;;;;;4773278;30;20051;-85
2021/10/04 04:37:42;;;;;;;4.60;1.20;;;11.50;97.20;;;;;;4776797;29;20416;-84
2021/10/04 04:40:16;;;;;;;7.03;1.70;;;11.50;97.20;;;;;;4792988;29;20042;-94
2021/10/04 04:42:50;;;;;;;6.57;1.70;;;11.50;97.20;;;;;;4795266;29;20047;-95
2021/10/04 04:45:20;;;;;;;8.68;1.40;;;11.50;97.20;;;;;;4796693;29;20510;-95
2021/10/04 04:47:48;;;;;;;5.95;1.48;;;11.50;97.20;;;;;;4896856;24;20055;-95
2021/10/04 04:50:14;;;;;;;8.52;1.58;;;11.50;97.30;;;;;;4776273;30;20131;-83
2021/10/04 04:52:40;;;;;;;4.07;1.17;;;11.50;97.30;;;;;;4781369;29;20055;-84
2021/10/04 04:55:06;;;;;;;6.88;1.58;;;11.50;97.30;;;;;;4790838;29;20523;-83
2021/10/04 04:57:32;;;;;;;6.93;1.30;;;11.50;97.30;;;;;;4791103;29;20099;-84
2021/10/04 05:00:00;;;;;;;5.75;1.20;;;11.40;97.30;;;;;;4787274;29;20532;-82
2021/10/04 05:02:26;;;;;;;5.53;1.40;;;11.50;97.30;;;;;;4775664;29;20079;-82
2021/10/04 05:04:52;;;;;;;8.43;1.38;;;11.50;97.30;;;;;;4806963;29;20085;-81
2021/10/04 05:07:17;;;;;;;7.07;1.38;;;11.50;97.30;;;;;;4791645;29;20051;-82
2021/10/04 05:09:43;;;;;;;5.10;1.23;;;11.40;97.30;;;;;;4790513;29;20188;-82
2021/10/04 05:12:09;;;;;;;5.07;1.38;;;11.50;97.30;;;;;;4791338;29;20137;-82
2021/10/04 05:14:35;;;;;;;6.78;1.27;;;11.40;97.30;;;;;;4790393;29;20043;-82
2021/10/04 05:17:00;;;;;;;6.53;1.45;;;11.40;97.30;;;;;;4789290;29;20141;-82
2021/10/04 05:19:26;;;;;;;5.97;1.35;;;11.50;97.40;;;;;;4790900;29;20054;-82
2021/10/04 05:21:53;;;;;;;4.28;1.45;;;11.50;97.30;;;;;;4790830;29;20050;-82
2021/10/04 05:24:19;;;;;;;7.43;1.83;;;11.40;97.30;;;;;;4790793;29;20113;-82
2021/10/04 05:26:45;;;;;;;6.32;1.40;;;11.40;97.30;;;;;;4790987;29;20184;-81
2021/10/04 05:29:11;;;;;;;4.43;1.30;;;11.50;97.30;;;;;;4791100;29;20500;-82
2021/10/04 05:31:37;;;;;;;4.40;1.33;;;11.40;97.30;;;;;;4790288;29;20089;-81
2021/10/04 05:34:02;;;;;;;5.35;1.30;;;11.50;97.30;;;;;;4790872;29;20565;-82
2021/10/04 05:36:29;;;;;;;5.07;1.50;;;11.50;97.30;;;;;;4789688;29;20130;-82
2021/10/04 05:38:55;;;;;;;3.15;1.08;;;11.50;97.30;;;;;;4790887;29;20596;-82
2021/10/04 05:41:21;;;;;;;6.30;1.25;;;11.50;97.30;;;;;;4790476;29;20130;-82
2021/10/04 05:43:46;;;;;;;10.48;1.50;;;11.50;97.30;;;;;;4788351;29;20055;-82
2021/10/04 05:46:12;;;;;;;6.93;1.35;;;11.50;97.30;;;;;;4790516;29;20069;-82
2021/10/04 05:48:37;;;;;;;8.10;1.65;;;11.50;97.20;;;;;;4790126;29;20046;-82
2021/10/04 05:51:05;;;;;;;6.40;1.40;;;11.50;97.20;;;;;;4789662;29;20054;-82
2021/10/04 05:53:32;;;;;;;5.45;1.23;;;11.50;97.30;;;;;;4790383;29;20082;-82
2021/10/04 05:55:57;;;;;;;5.30;1.20;;;11.50;97.30;;;;;;4790708;29;20066;-82
2021/10/04 05:58:23;;;;;;;4.70;1.00;;;11.50;97.30;;;;;;4789922;29;20493;-82
2021/10/04 06:00:48;;;;;;;4.68;1.40;;;11.50;97.60;;;;;;4780050;30;20051;-82
2021/10/04 06:03:14;;;;;;;7.22;1.60;;;11.50;97.20;;;;;;4788221;29;20053;-81
2021/10/04 06:05:40;;;;;;;7.03;1.35;;;11.50;97.20;;;;;;4798341;29;20134;-82
2021/10/04 06:08:05;;;;;;;6.10;1.30;;;11.50;97.20;;;;;;4790225;29;20530;-82
2021/10/04 06:10:31;;;;;;;4.28;1.17;;;11.50;97.20;;;;;;4789060;29;20043;-82
2021/10/04 06:12:57;;;;;;;4.93;1.40;;;11.50;97.20;;;;;;4789631;29;20074;-83
2021/10/04 06:15:22;;;;;;;5.50;1.40;;;11.50;97.20;;;;;;4789845;29;20058;-82
2021/10/04 06:17:48;;;;;;;5.72;1.10;;;11.50;97.50;;;;;;4789862;29;20169;-82
2021/10/04 06:20:14;;;;;;;5.72;1.50;;;11.50;97.10;;;;;;4783626;30;20039;-82
2021/10/04 06:22:40;;;;;;;6.40;1.42;;;11.50;97.10;;;;;;4772191;30;20055;-84
2021/10/04 06:25:10;;;;;;;4.65;1.48;;;11.50;97.10;;;;;;4772320;30;20039;-84
2021/10/04 06:27:36;;;;;;;3.78;1.30;;;11.50;97.10;;;;;;4771309;30;20138;-83
2021/10/04 06:30:03;;;;;;;7.65;1.35;;;11.50;97.10;;;;;;4773375;29;20177;-83
2021/10/04 06:32:28;;;;;;;5.18;1.35;;;11.50;97.10;;;;;;4771719;30;20532;-82
2021/10/04 06:34:54;;;;;;;8.73;1.70;;;11.50;97.10;;;;;;4787762;30;20086;-82
2021/10/04 06:37:19;;;;;;;5.65;1.20;;;11.50;97.20;;;;;;4772733;30;20035;-80
2021/10/04 06:39:45;;;;;;;5.18;1.10;;;11.50;97.20;;;;;;4771464;30;20073;-83
2021/10/04 06:42:10;;;;;;;6.20;1.30;;;11.50;97.10;;;;;;4772439;30;20091;-82
2021/10/04 06:44:37;;;;;;;4.35;1.30;;;11.50;97.10;;;;;;4772115;30;20048;-84
2021/10/04 06:47:03;;;;;;;7.15;1.58;;;11.50;97.10;;;;;;4771191;30;20062;-81
2021/10/04 06:49:29;;;;;;;5.05;1.40;;;11.60;97.10;;;;;;4771629;30;20494;-81
2021/10/04 06:51:54;;;;;;;5.68;1.70;;;11.60;97.10;;;;;;4772058;30;20077;-82
2021/10/04 06:54:20;;;;;;;5.88;1.42;;;11.60;97.10;;;;;;4771301;30;20428;-81
2021/10/04 06:56:46;;;;;;;5.53;1.40;;;11.60;97.50;;;;;;4771829;30;20196;-82
2021/10/04 06:59:11;;;;;;;8.95;1.90;;;11.60;97.10;;;;;;4782065;29;20055;-81
2021/10/04 07:01:37;;;;;;;6.05;1.30;;;11.60;97.10;;;;;;4788309;29;20058;-81
2021/10/04 07:04:04;;;;;;;6.32;1.50;;;11.60;97.10;;;;;;4789776;29;20082;-81
2021/10/04 07:06:30;;;;;;;4.97;1.30;;;11.60;97.20;;;;;;4788710;29;20051;-81
2021/10/04 07:08:55;;;;;;;6.75;1.63;;;11.60;97.10;;;;;;4789139;29;20187;-81
2021/10/04 07:11:21;;;;;;;6.03;1.58;;;11.60;97.10;;;;;;4781734;29;20138;-82
2021/10/04 07:13:48;;;;;;;6.80;1.38;;;11.60;97.20;;;;;;4809530;29;20057;-82
2021/10/04 07:16:17;;;;;;;9.75;1.70;;;11.70;97.20;;;;;;4810776;29;20054;-81
2021/10/04 07:18:43;;;;;;;4.00;1.38;;;11.70;97.20;;;;;;4800159;29;20467;-81
2021/10/04 07:21:09;;;;;;;5.97;1.35;;;11.70;97.20;;;;;;4775422;30;20047;-82
2021/10/04 07:23:35;;;;;;;5.60;1.10;;;11.70;97.10;;;;;;4774110;29;20039;-82
2021/10/04 07:26:00;;;;;;;8.77;1.50;;;11.70;97.20;;;;;;4774764;30;20043;-82
2021/10/04 07:28:26;;;;;;;6.85;1.35;;;11.70;97.20;;;;;;4778978;29;20039;-82
2021/10/04 07:30:52;;;;;;;6.70;1.45;;;11.70;97.20;;;;;;4792327;29;20047;-82
2021/10/04 07:33:18;;;;;;;8.60;1.40;;;11.70;97.20;;;;;;4792731;29;20047;-81
2021/10/04 07:35:44;;;;;;;6.15;1.30;;;11.70;97.20;;;;;;4792696;29;20058;-81
2021/10/04 07:38:10;;;;;;;3.95;1.20;;;11.70;97.20;;;;;;4792444;29;20054;-82
2021/10/04 07:40:36;;;;;;;9.98;1.90;;;11.80;97.20;;;;;;4777930;30;20051;-82
2021/10/04 07:43:02;;;;;;;6.50;1.60;;;11.80;97.20;;;;;;4774091;30;20078;-82
2021/10/04 07:45:31;;;;;;;6.68;1.33;;;11.80;97.20;;;;;;4775037;30;20079;-82
2021/10/04 07:47:56;;;;;;;7.10;1.67;;;11.80;97.10;;;;;;4774801;30;20168;-82
2021/10/04 07:50:22;;;;;;;5.43;1.60;;;11.80;97.10;;;;;;4773989;30;20239;-81
2021/10/04 07:52:47;;;;;;;5.10;1.30;;;11.80;97.10;;;;;;4774540;30;20047;-81
2021/10/04 07:55:14;;;;;;;5.97;1.55;;;11.80;97.10;;;;;;4774903;30;20111;-82
2021/10/04 07:57:40;;;;;;;9.50;1.88;;;11.90;97.10;;;;;;4785895;29;20417;-82
2021/10/04 08:00:07;;;;;;;5.95;1.50;;;11.80;97.10;;;;;;4783599;30;20134;-81
2021/10/04 08:02:36;;;;;;;8.05;1.50;;;11.90;97.20;;;;;;4790590;29;20042;-82
2021/10/04 08:05:02;;;;;;;8.75;1.42;;;11.90;97.10;;;;;;4791613;29;20050;-82
2021/10/04 08:07:27;;;;;;;4.57;1.02;;;11.90;97.20;;;;;;4792059;29;20051;-81
2021/10/04 08:09:53;;;;;;;4.85;1.40;;;11.90;97.20;;;;;;4792148;29;20058;-82
2021/10/04 08:12:21;;;;;;;6.70;1.50;;;11.90;97.10;;;;;;4791675;29;20054;-82
2021/10/04 08:14:46;;;;;;;9.35;1.65;;;11.90;97.00;;;;;;4792157;29;20110;-82
2021/10/04 08:17:12;;;;;;;5.82;1.65;;;11.90;97.00;;;;;;4787660;29;20134;-83
2021/10/04 08:19:37;;;;;;;6.78;1.40;;;12.00;97.00;;;;;;4791178;29;20137;-81
2021/10/04 08:22:03;;;;;;;9.02;1.70;;;11.90;97.00;;;;;;4792172;29;20461;-82
2021/10/04 08:34:27;;;;;;;4.93;1.45;;;12.00;97.10;;;;;;5666002;24;20054;-81
2021/10/04 08:36:53;;;;;;;7.00;1.70;;;12.10;97.10;;;;;;4809668;29;20056;-82
2021/10/04 08:39:18;;;;;;;8.43;1.90;;;12.10;97.10;;;;;;4808220;29;20384;-83
2021/10/04 08:41:44;;;;;;;4.47;1.40;;;12.10;97.00;;;;;;4799984;29;20986;-84
2021/10/04 08:44:12;;;;;;;8.10;1.80;;;12.20;97.10;;;;;;4809981;29;20042;-84
2021/10/04 08:46:41;;;;;;;8.93;2.05;;;12.30;97.10;;;;;;4809179;29;20101;-84
2021/10/04 08:49:07;;;;;;;7.60;1.50;;;12.40;97.10;;;;;;4809717;29;20560;-84
2021/10/04 08:51:34;;;;;;;8.05;1.70;;;12.40;97.00;;;;;;4809753;29;20051;-89
2021/10/04 08:54:00;;;;;;;5.65;1.38;;;12.50;96.90;;;;;;4793152;29;20132;-88
2021/10/04 08:56:26;;;;;;;4.35;1.38;;;12.60;96.90;;;;;;4791480;29;20057;-89
2021/10/04 08:58:51;;;;;;;5.13;1.48;;;12.70;96.80;;;;;;4791600;29;20047;-88
2021/10/04 09:01:23;;;;;;;5.70;1.42;;;12.80;96.70;;;;;;4809000;29;20061;-89
2021/10/04 09:03:57;;;;;;;5.25;1.42;;;12.80;96.70;;;;;;4803479;29;20043;-88
2021/10/04 09:06:31;;;;;;;9.48;1.63;;;12.90;96.60;;;;;;4792168;29;20110;-89
2021/10/04 09:09:03;;;;;;;11.23;2.15;;;13.10;96.60;;;;;;4792208;29;20043;-91
2021/10/04 09:11:49;;;;;;;7.05;1.40;;;13.10;96.40;;;;;;4804158;29;20042;-90
2021/10/04 09:14:18;;;;;;;6.72;1.60;;;13.20;96.20;;;;;;4809942;29;20054;-90
2021/10/04 09:16:53;;;;;;;8.05;1.73;;;13.20;96.20;;;;;;4816249;29;20275;-90
2021/10/04 09:19:22;;;;;;;8.50;1.73;;;13.40;96.00;;;;;;4828001;29;20054;-88
2021/10/04 09:22:03;;;;;;;6.07;1.40;;;13.40;96.00;;;;;;4827350;29;20058;-90
2021/10/04 09:24:29;;;;;;;5.78;1.20;;;13.50;95.80;;;;;;4827276;29;20054;-90
2021/10/04 09:26:55;;;;;;;6.05;1.30;;;13.60;95.70;;;;;;4828502;29;20407;-90
2021/10/04 09:29:20;;;;;;;7.40;1.63;;;13.70;95.70;;;;;;4806440;29;20046;-90
2021/10/04 09:31:47;;;;;;;9.15;1.70;;;13.70;95.50;;;;;;4808171;29;20054;-91
2021/10/04 09:34:16;;;;;;;9.20;1.77;;;13.80;95.50;;;;;;4808430;29;20137;-91
2021/10/04 09:36:45;;;;;;;6.43;1.48;;;13.90;95.50;;;;;;4798158;29;20437;-91
2021/10/04 09:39:36;;;;;;;7.85;1.52;;;13.90;95.20;;;;;;4826998;29;20056;-90
2021/10/04 09:42:17;;;;;;;6.85;1.42;;;14.00;95.00;;;;;;4814485;29;20050;-90
2021/10/04 09:44:56;;;;;;;8.65;1.52;;;14.10;94.90;;;;;;4807624;29;20054;-90
2021/10/04 09:47:28;;;;;;;5.80;1.27;;;14.20;94.80;;;;;;4808771;29;20115;-91
2021/10/04 09:50:15;;;;;;;6.28;1.27;;;14.30;94.70;;;;;;4799324;24;20067;-91
2021/10/04 09:53:03;;;;;;;9.23;1.30;;;14.30;94.50;;;;;;4791050;29;20458;-90
2021/10/04 09:55:37;;;;;;;7.80;1.73;;;14.40;94.50;;;;;;4790547;29;20055;-89
2021/10/04 09:58:15;;;;;;;8.48;1.60;;;14.50;94.60;;;;;;4790811;29;20039;-90
2021/10/04 10:01:11;;;;;;;8.20;1.38;;;14.60;94.40;;;;;;4790279;29;20046;-91
2021/10/04 10:03:39;;;;;;;6.63;1.40;;;14.70;94.10;;;;;;4799112;29;20124;-92
2021/10/04 10:06:14;;;;;;;9.18;1.60;;;14.80;94.00;;;;;;4792092;29;20043;-90
2021/10/04 10:08:40;;;;;;;8.43;1.30;;;14.80;93.60;;;;;;4791703;29;20138;-89
2021/10/04 10:11:06;;;;;;;7.28;1.45;;;14.90;93.50;;;;;;4791367;29;20104;-92
2021/10/04 10:13:35;;;;;;;7.05;1.30;;;14.90;93.30;;;;;;4790919;29;20055;-90
2021/10/04 10:16:09;;;;;;;8.25;1.45;;;15.00;93.20;;;;;;4790073;29;20051;-93
2021/10/04 10:18:54;;;;;;;10.80;1.55;;;15.10;93.10;;;;;;4786373;29;20055;-87
2021/10/04 10:21:26;;;;;;;7.35;1.67;;;15.10;92.70;;;;;;4789346;29;20051;-88
2021/10/04 10:23:59;;;;;;;9.52;1.35;;;15.20;93.10;;;;;;4789585;29;20108;-88
2021/10/04 10:26:59;;;;;;;8.27;1.33;;;15.30;93.00;;;;;;4784673;29;20043;-89
2021/10/04 10:29:27;;;;;;;7.85;1.40;;;15.30;92.60;;;;;;4804225;29;20046;-87
2021/10/04 10:31:55;;;;;;;8.27;1.25;;;15.40;92.50;;;;;;4800837;29;20089;-92
2021/10/04 10:34:31;;;;;;;6.53;1.20;;;15.40;92.30;;;;;;4789822;29;20047;-89
2021/10/04 10:37:03;;;;;;;7.90;1.48;;;15.50;92.20;;;;;;4790898;29;20113;-91
2021/10/04 10:39:37;;;;;;;10.48;1.40;;;15.60;92.40;;;;;;4789423;29;20417;-90
2021/10/04 10:42:13;;;;;;;8.40;1.08;;;15.60;91.70;;;;;;4789930;29;20047;-90
2021/10/04 10:44:59;;;;;;;9.35;1.40;;;15.70;91.70;;;;;;4790327;29;20051;-89
2021/10/04 10:47:34;;;;;;;7.15;1.23;;;15.80;91.70;;;;;;4777379;29;20115;-91
2021/10/04 10:50:07;;;;;;;9.50;1.48;;;15.80;91.60;;;;;;4789493;29;20066;-93
2021/10/04 10:52:37;;;;;;;;;;;15.90;91.60;;;;;;4776293;30;20055;-90
2021/10/04 10:55:23;;;;;;;9.35;1.35;;;15.90;91.40;;;;;;4784924;29;19925;-91
2021/10/04 10:57:48;;;;;;;7.95;1.33;;;15.90;91.40;;;;;;4782948;29;20051;-90
2021/10/04 11:00:35;;;;;;;9.50;1.52;;;16.00;91.40;;;;;;4793587;29;20054;-91
2021/10/04 11:03:16;;;;;;;7.28;1.20;;;16.00;91.20;;;;;;4794568;29;20051;-91
2021/10/04 11:05:42;;;;;;;6.60;1.23;;;16.10;91.10;;;;;;4794299;29;20126;-92
2021/10/04 11:08:16;;;;;;;7.78;1.65;;;16.20;91.10;;;;;;4794172;29;20142;-90
2021/10/04 11:10:53;;;;;;;7.72;1.70;;;16.20;90.60;;;;;;4794059;29;20128;-90
2021/10/04 11:13:28;;;;;;;10.50;1.30;;;16.30;90.70;;;;;;4794467;29;20042;-91
2021/10/04 11:16:16;;;;;;;7.68;1.20;;;16.30;90.10;;;;;;4793255;29;20043;-90
2021/10/04 11:18:45;;;;;;;7.95;1.27;;;16.30;90.10;;;;;;4792753;29;20112;-92
2021/10/04 11:21:17;;;;;;;8.60;1.10;;;16.40;90.00;;;;;;4809799;29;20101;-94
2021/10/04 11:23:47;;;;;;;7.03;1.20;;;16.40;89.30;;;;;;4794757;29;20127;-93
2021/10/04 11:26:19;;;;;;;10.32;1.20;;;16.40;89.80;;;;;;4795124;29;20089;-93
2021/10/04 11:28:53;;;;;;;6.22;1.10;;;16.50;89.50;;;;;;4793032;29;20150;-91
2021/10/04 11:31:49;;;;;;;7.97;1.33;;;16.60;88.70;;;;;;4794851;29;20484;-90
2021/10/04 11:34:21;;;;;;;9.65;1.30;;;16.60;88.50;;;;;;4800906;29;20138;-93
2021/10/04 11:36:54;;;;;;;6.20;1.35;;;16.60;87.60;;;;;;4774663;30;20055;-88
2021/10/04 11:39:43;;;;;;;5.95;1.00;;;16.70;86.60;;;;;;4775318;30;20138;-91
2021/10/04 11:42:12;;;;;;;5.00;1.02;;;16.70;87.30;;;;;;4774911;30;20098;-89
2021/10/04 11:44:43;;;;;;;9.30;1.52;;;16.70;87.50;;;;;;4774420;30;20043;-87
2021/10/04 11:47:21;;;;;;;8.30;1.13;;;16.80;87.80;;;;;;4774680;30;20491;-93
2021/10/04 11:49:49;;;;;;;6.32;1.10;;;16.80;85.70;;;;;;4775128;30;20074;-87
2021/10/04 11:52:19;;;;;;;7.75;1.10;;;16.90;86.80;;;;;;4789405;29;20088;-85
2021/10/04 11:54:46;;;;;;;7.32;1.38;;;16.90;85.80;;;;;;4775382;30;20055;-88
2021/10/04 11:57:31;;;;;;;9.75;1.25;;;16.90;85.90;;;;;;4774709;30;20401;-89
2021/10/04 12:00:22;;;;;;;9.63;1.50;;;17.00;86.30;;;;;;4774783;30;20119;-89
2021/10/04 12:07:13;;;;;;;4.88;0.90;;;17.00;84.20;;;;;;4788559;29;20054;-88
2021/10/04 12:10:34;;;;;;;7.03;0.93;;;17.00;84.00;;;;;;4774897;30;20162;-87
2021/10/04 12:19:28;;;;;;;6.03;1.10;;;17.20;84.80;;;;;;5517645;24;20062;-91
2021/10/04 12:43:40;;;;;;;6.93;1.20;;;17.30;81.00;;;;;;4752818;30;20059;-88
2021/10/04 12:46:10;;;;;;;5.85;0.85;;;17.40;81.50;;;;;;4736903;30;20152;-88
2021/10/04 12:48:45;;;;;;;7.78;0.82;;;17.40;80.50;;;;;;4791220;29;20054;-88
2021/10/04 12:51:16;;;;;;;6.22;0.90;;;17.40;80.10;;;;;;4792169;29;20137;-88
2021/10/04 12:53:48;;;;;;;5.13;0.93;;;17.40;80.60;;;;;;4790536;29;20404;-87
2021/10/04 12:56:24;;;;;;;6.03;1.02;;;17.40;80.50;;;;;;4796518;24;20075;-88
2021/10/04 12:59:10;;;;;;;6.82;1.08;;;17.40;80.20;;;;;;4791371;29;20054;-89
2021/10/04 13:02:08;;;;;;;7.45;1.05;;;17.50;79.50;;;;;;4790197;29;20046;-87
2021/10/04 13:04:40;;;;;;;6.10;1.33;;;17.50;80.20;;;;;;4790890;29;20133;-87
2021/10/04 13:07:09;;;;;;;7.97;0.85;;;17.50;80.60;;;;;;4790559;29;20065;-88
2021/10/04 13:09:41;;;;;;;8.80;1.15;;;17.50;81.10;;;;;;4790915;29;20038;-88
2021/10/04 13:12:06;;;;;;;8.15;1.23;;;17.50;80.10;;;;;;4789914;29;20515;-88
2021/10/04 13:14:35;;;;;;;8.13;1.10;;;17.60;80.40;;;;;;4780436;29;20043;-86
2021/10/04 13:17:01;;;;;;;5.55;1.05;;;17.60;79.70;;;;;;4773637;29;20515;-86
2021/10/04 13:19:27;;;;;;;7.05;1.20;;;17.60;79.30;;;;;;4772664;30;20051;-86
2021/10/04 13:21:52;;;;;;;7.03;1.00;;;17.60;78.90;;;;;;4772109;30;20051;-86
2021/10/04 13:24:18;;;;;;;6.55;1.02;;;17.60;78.50;;;;;;4782394;29;20074;-85
2021/10/04 13:26:45;;;;;;;6.10;0.90;;;17.60;78.10;;;;;;4806432;29;20137;-88
2021/10/04 13:29:12;;;;;;;4.07;0.95;;;17.60;78.70;;;;;;4808585;29;20492;-86
2021/10/04 13:31:38;;;;;;;7.50;1.00;;;17.60;78.30;;;;;;4808939;29;20429;-86
2021/10/04 13:34:04;;;;;;;5.22;1.00;;;17.60;78.70;;;;;;4809814;29;20107;-85
2021/10/04 13:36:31;;;;;;;6.63;0.90;;;17.70;78.90;;;;;;4808856;29;20062;-86
2021/10/04 13:38:57;;;;;;;6.15;0.90;;;17.70;79.00;;;;;;4803729;29;20042;-84